Time;durP1;ratioP1;P1;durP2;ratioP2;P2;SDS_P1;SDS_P2;PMS_P1;PMS_P2;Temp;Humidity;BMP_temperature;BMP_pressure;BME280_temperature;BME280_humidity;BME280_pressure;Samples;Min_cycle;Max_cycle;Signal;HPM_P1;HPM_P2
2020/12/30 00:01:07;;;;;;;40.73;25.15;;;;;;;4.63;87.15;100134.73;1845989;77;22933;-66
2020/12/30 00:03:35;;;;;;;51.83;29.45;;;;;;;4.69;87.21;100140.92;1842268;77;21227;-66
2020/12/30 00:06:05;;;;;;;52.23;30.92;;;;;;;4.72;87.26;100143.34;1815606;79;21124;-66
2020/12/30 00:08:32;;;;;;;48.73;29.60;;;;;;;4.76;87.32;100131.79;1815442;79;21147;-66
2020/12/30 00:11:00;;;;;;;48.90;27.25;;;;;;;4.78;87.32;100129.92;1844275;77;21058;-66
2020/12/30 00:13:28;;;;;;;50.73;28.07;;;;;;;4.81;87.37;100127.11;1815769;79;22066;-66
2020/12/30 00:15:57;;;;;;;48.60;29.57;;;;;;;4.84;87.38;100130.41;1814279;78;21475;-66
2020/12/30 00:18:25;;;;;;;48.08;26.12;;;;;;;4.88;87.40;100138.91;1813997;79;21398;-66
2020/12/30 00:20:53;;;;;;;55.05;27.15;;;;;;;4.91;87.46;100141.33;1817950;77;21274;-67
2020/12/30 00:23:21;;;;;;;48.30;25.82;;;;;;;4.94;87.50;100135.09;1792002;77;21062;-66
2020/12/30 00:25:50;;;;;;;47.48;26.62;;;;;;;4.95;87.51;100132.84;1827875;77;21882;-66
2020/12/30 00:28:18;;;;;;;42.85;25.12;;;;;;;4.96;87.56;100133.22;1816319;77;21076;-66
2020/12/30 00:30:46;;;;;;;40.80;24.25;;;;;;;4.99;87.58;100144.33;1837231;77;21081;-67
2020/12/30 00:33:14;;;;;;;42.23;25.75;;;;;;;5.02;87.61;100144.61;1845932;77;21133;-66
2020/12/30 00:35:41;;;;;;;46.30;26.35;;;;;;;5.05;87.63;100141.83;1820983;77;21139;-66
2020/12/30 00:38:09;;;;;;;42.58;26.07;;;;;;;5.07;87.65;100151.73;1849007;77;22004;-66
2020/12/30 00:40:37;;;;;;;44.45;27.02;;;;;;;5.11;87.69;100157.98;1828679;77;21076;-66
2020/12/30 00:43:07;;;;;;;42.75;26.55;;;;;;;5.14;87.69;100170.91;1845648;77;21418;-67
2020/12/30 00:45:34;;;;;;;45.17;27.00;;;;;;;5.16;87.71;100169.04;1791834;79;21114;-66
2020/12/30 00:48:02;;;;;;;42.17;25.45;;;;;;;5.18;87.69;100166.32;1821530;77;21624;-66
2020/12/30 00:50:30;;;;;;;39.70;24.50;;;;;;;5.19;87.69;100174.55;1835477;77;22022;-66
2020/12/30 00:52:58;;;;;;;40.50;24.52;;;;;;;5.20;87.69;100172.77;1852230;77;21046;-66
2020/12/30 00:55:26;;;;;;;41.88;23.57;;;;;;;5.20;87.68;100173.61;1841875;77;21110;-66
2020/12/30 00:57:55;;;;;;;37.63;22.50;;;;;;;5.20;87.67;100165.76;1849019;77;21121;-65
2020/12/30 01:00:23;;;;;;;36.30;22.87;;;;;;;5.21;87.67;100170.09;1836390;77;21125;-66
2020/12/30 01:03:01;;;;;;;38.05;24.40;;;;;;;5.26;87.70;100160.16;1843458;76;29041;-67
2020/12/30 01:05:29;;;;;;;36.28;21.70;;;;;;;5.23;87.68;100164.28;1815911;77;21044;-67
2020/12/30 01:07:57;;;;;;;38.15;22.65;;;;;;;5.23;87.67;100165.59;1808478;79;21797;-67
2020/12/30 01:10:26;;;;;;;34.90;21.48;;;;;;;5.23;87.69;100159.52;1810788;78;21111;-66
2020/12/30 01:12:53;;;;;;;30.45;20.70;;;;;;;5.22;87.68;100166.53;1814756;78;21582;-67
2020/12/30 01:15:21;;;;;;;30.97;21.17;;;;;;;5.22;87.70;100169.15;1831347;78;21068;-67
2020/12/30 01:17:48;;;;;;;30.92;21.30;;;;;;;5.21;87.72;100165.28;1823340;78;21484;-67
2020/12/30 01:20:16;;;;;;;28.17;18.00;;;;;;;5.20;87.71;100163.61;1782220;78;24199;-67
2020/12/30 01:22:44;;;;;;;23.52;15.95;;;;;;;5.17;87.69;100160.71;1811943;78;21119;-67
2020/12/30 01:25:12;;;;;;;26.77;16.75;;;;;;;5.14;87.71;100160.91;1817030;78;21028;-67
2020/12/30 01:27:41;;;;;;;27.00;18.85;;;;;;;5.08;87.70;100162.11;1832220;78;21020;-67
2020/12/30 01:30:08;;;;;;;30.75;18.75;;;;;;;5.05;87.70;100169.31;1812094;78;21075;-67
2020/12/30 01:32:36;;;;;;;27.05;17.77;;;;;;;5.02;87.69;100169.04;1785515;79;21904;-67
2020/12/30 01:35:04;;;;;;;29.10;18.15;;;;;;;4.99;87.69;100170.98;1770264;78;21178;-67
2020/12/30 01:37:32;;;;;;;29.12;19.42;;;;;;;4.95;87.70;100166.87;1786799;78;21507;-67
2020/12/30 01:40:00;;;;;;;29.80;20.20;;;;;;;4.91;87.67;100165.34;1808268;78;21230;-67
2020/12/30 01:42:28;;;;;;;34.35;21.75;;;;;;;4.88;87.70;100153.30;1784765;78;21060;-67
2020/12/30 01:44:55;;;;;;;29.77;20.12;;;;;;;4.84;87.68;100155.27;1778338;78;24217;-67
2020/12/30 01:47:23;;;;;;;34.75;18.50;;;;;;;4.80;87.67;100147.67;1794375;78;21143;-68
2020/12/30 01:49:51;;;;;;;36.60;20.35;;;;;;;4.76;87.68;100150.11;1803033;78;21048;-67
2020/12/30 01:52:18;;;;;;;25.97;16.57;;;;;;;4.72;87.67;100153.34;1726923;80;21063;-67
2020/12/30 01:54:46;;;;;;;33.20;19.05;;;;;;;4.70;87.65;100149.98;1783307;78;21068;-67
2020/12/30 01:57:13;;;;;;;27.75;18.20;;;;;;;4.69;87.67;100151.39;1792801;78;23104;-67
2020/12/30 01:59:41;;;;;;;29.95;20.37;;;;;;;4.67;87.66;100146.72;1795782;78;21079;-67
2020/12/30 02:02:10;;;;;;;31.93;19.52;;;;;;;4.64;87.65;100154.29;1780056;78;21067;-67
2020/12/30 02:04:55;;;;;;;33.67;21.73;;;;;;;4.63;87.67;100155.66;1735408;80;21098;-66
2020/12/30 02:07:24;;;;;;;38.02;21.37;;;;;;;4.63;87.69;100156.97;1806774;78;21470;-66
2020/12/30 02:09:52;;;;;;;38.67;23.12;;;;;;;4.64;87.70;100155.59;1808016;78;22061;-66
2020/12/30 02:12:20;;;;;;;35.58;21.73;;;;;;;4.65;87.71;100152.05;1784843;78;21063;-66
2020/12/30 02:14:48;;;;;;;40.17;23.70;;;;;;;4.67;87.75;100151.95;1797592;78;21115;-66
2020/12/30 02:17:16;;;;;;;37.78;22.77;;;;;;;4.69;87.75;100156.63;1793005;78;21109;-66
2020/12/30 02:19:45;;;;;;;38.25;22.75;;;;;;;4.73;87.79;100160.30;1786982;78;21578;-66
2020/12/30 02:22:16;;;;;;;37.08;21.77;;;;;;;4.76;87.77;100157.95;1794817;78;24278;-66
2020/12/30 02:24:45;;;;;;;40.38;22.82;;;;;;;4.78;87.79;100156.92;1783480;78;21467;-66
2020/12/30 02:27:13;;;;;;;41.13;22.10;;;;;;;4.79;87.77;100160.38;1787500;78;21569;-66
2020/12/30 02:29:41;;;;;;;34.67;21.12;;;;;;;4.79;87.79;100165.61;1793658;78;21051;-66
2020/12/30 02:32:08;;;;;;;34.10;20.85;;;;;;;4.79;87.79;100163.00;1811307;78;21040;-66
2020/12/30 02:34:36;;;;;;;39.67;20.92;;;;;;;4.80;87.76;100165.98;1804055;77;24284;-65
2020/12/30 02:37:05;;;;;;;36.48;21.30;;;;;;;4.81;87.76;100162.44;1783219;78;21186;-66
2020/12/30 02:39:33;;;;;;;37.65;21.55;;;;;;;4.79;87.78;100156.45;1792165;78;21489;-65
2020/12/30 02:42:01;;;;;;;29.90;18.32;;;;;;;4.78;87.78;100151.69;1811447;78;21063;-66
2020/12/30 02:44:28;;;;;;;35.13;20.77;;;;;;;4.77;87.75;100150.01;1784113;78;21055;-66
2020/12/30 02:46:58;;;;;;;36.63;19.27;;;;;;;4.73;87.75;100148.95;1783997;79;22066;-65
2020/12/30 02:49:25;;;;;;;37.42;19.32;;;;;;;4.70;87.71;100149.14;1813463;79;21115;-66
2020/12/30 02:51:53;;;;;;;33.20;19.90;;;;;;;4.65;87.71;100150.73;1803218;78;21079;-65
2020/12/30 02:54:20;;;;;;;32.25;20.65;;;;;;;4.60;87.69;100143.14;1782256;78;21059;-66
2020/12/30 02:56:48;;;;;;;45.73;21.73;;;;;;;4.57;87.70;100143.33;1783233;78;21108;-66
2020/12/30 02:59:15;;;;;;;33.95;19.05;;;;;;;4.54;87.68;100145.30;1807886;78;22255;-65
2020/12/30 03:01:44;;;;;;;36.38;20.85;;;;;;;4.49;87.67;100139.01;1781989;78;21158;-66
2020/12/30 03:04:12;;;;;;;32.28;18.92;;;;;;;4.45;87.64;100137.98;1781853;79;21155;-65
2020/12/30 03:06:40;;;;;;;31.23;20.30;;;;;;;4.40;87.64;100143.45;1780808;79;21114;-65
2020/12/30 03:09:09;;;;;;;34.85;20.20;;;;;;;4.37;87.65;100138.41;1778367;79;21102;-66
2020/12/30 03:11:37;;;;;;;30.62;17.70;;;;;;;4.33;87.66;100139.50;1775963;80;21825;-65
2020/12/30 03:14:05;;;;;;;37.73;18.98;;;;;;;4.29;87.65;100134.09;1800584;79;21111;-66
2020/12/30 03:16:33;;;;;;;38.58;20.50;;;;;;;4.26;87.65;100132.50;1775933;80;21059;-66
2020/12/30 03:19:01;;;;;;;45.80;21.65;;;;;;;4.23;87.65;100135.73;1777682;79;21163;-65
2020/12/30 03:21:29;;;;;;;36.33;19.95;;;;;;;4.21;87.67;100141.05;1785382;79;21067;-65
2020/12/30 03:23:56;;;;;;;52.17;22.45;;;;;;;4.20;87.69;100140.67;1798332;79;22070;-66
2020/12/30 03:26:25;;;;;;;42.95;22.82;;;;;;;4.19;87.69;100134.23;1796648;79;21099;-66
2020/12/30 03:28:52;;;;;;;42.05;22.30;;;;;;;4.17;87.70;100136.10;1806100;79;21067;-67
2020/12/30 03:31:20;;;;;;;49.05;21.70;;;;;;;4.17;87.73;100143.94;1800446;78;21485;-66
2020/12/30 03:33:48;;;;;;;50.92;20.52;;;;;;;4.17;87.73;100147.40;1771214;78;21183;-66
2020/12/30 03:36:15;;;;;;;50.52;19.57;;;;;;;4.16;87.73;100144.88;1775933;80;22077;-65
2020/12/30 03:38:43;;;;;;;49.25;20.68;;;;;;;4.14;87.74;100143.62;1787782;79;20996;-65
2020/12/30 03:41:11;;;;;;;50.30;20.68;;;;;;;4.12;87.75;100142.88;1799548;79;21443;-65
2020/12/30 03:43:39;;;;;;;39.50;19.17;;;;;;;4.14;87.76;100143.62;1785015;79;21071;-65
2020/12/30 03:46:07;;;;;;;39.75;18.45;;;;;;;4.14;87.76;100143.62;1805488;79;21123;-66
2020/12/30 03:48:35;;;;;;;50.58;18.87;;;;;;;4.13;87.76;100144.56;1798714;79;22855;-65
2020/12/30 03:51:02;;;;;;;31.85;15.90;;;;;;;4.13;87.78;100141.10;1775793;80;22526;-66
2020/12/30 03:53:30;;;;;;;49.13;19.60;;;;;;;4.13;87.78;100142.41;1783931;79;21576;-66
2020/12/30 03:55:58;;;;;;;44.60;18.42;;;;;;;4.10;87.79;100144.74;1793930;79;21095;-66
2020/12/30 03:58:26;;;;;;;53.02;19.10;;;;;;;4.09;87.79;100132.61;1781920;79;21108;-65
2020/12/30 04:00:54;;;;;;;47.65;16.75;;;;;;;4.07;87.78;100137.55;1778324;79;22139;-65
2020/12/30 04:03:22;;;;;;;42.08;18.12;;;;;;;4.06;87.79;100135.41;1775666;80;21072;-66
2020/12/30 04:05:53;;;;;;;45.65;16.87;;;;;;;4.05;87.80;100131.08;1784675;79;21132;-66
2020/12/30 04:08:21;;;;;;;20.02;11.75;;;;;;;4.02;87.77;100126.88;1801257;79;21083;-65
2020/12/30 04:10:48;;;;;;;56.58;17.98;;;;;;;4.01;87.79;100141.34;1793738;78;21452;-65
2020/12/30 04:13:16;;;;;;;47.10;17.70;;;;;;;3.97;87.81;100136.76;1806871;79;22166;-65
2020/12/30 04:15:46;;;;;;;35.98;16.25;;;;;;;3.96;87.79;100139.00;1805671;79;21557;-65
2020/12/30 04:18:14;;;;;;;59.65;19.32;;;;;;;3.95;87.82;100146.43;1786575;79;21158;-66
2020/12/30 04:20:42;;;;;;;32.58;15.48;;;;;;;3.94;87.82;100142.13;1777770;79;21057;-66
2020/12/30 04:23:10;;;;;;;58.40;19.23;;;;;;;3.95;87.83;100147.73;1787360;79;21060;-65
2020/12/30 04:25:37;;;;;;;73.90;19.50;;;;;;;3.97;87.85;100144.59;1807737;79;22046;-65
2020/12/30 04:28:06;;;;;;;48.08;17.27;;;;;;;3.99;87.86;100140.12;1791278;79;21138;-65
2020/12/30 04:30:34;;;;;;;55.65;18.23;;;;;;;4.01;87.87;100140.03;1785276;79;21451;-66
2020/12/30 04:33:03;;;;;;;79.80;18.92;;;;;;;3.98;87.88;100142.36;1801170;79;21104;-66
2020/12/30 04:35:30;;;;;;;56.08;22.25;;;;;;;3.99;87.90;100137.51;1802608;79;21110;-66
2020/12/30 04:37:59;;;;;;;58.33;18.48;;;;;;;3.98;87.89;100142.36;1813128;79;21887;-65
2020/12/30 04:40:27;;;;;;;42.98;19.32;;;;;;;3.99;87.91;100141.89;1809688;79;21115;-66
2020/12/30 04:42:56;;;;;;;63.00;20.15;;;;;;;3.98;87.90;100152.81;1797099;79;21115;-66
2020/12/30 04:45:24;;;;;;;69.07;21.02;;;;;;;3.98;87.92;100154.12;1807640;79;21151;-66
2020/12/30 04:47:51;;;;;;;31.25;15.58;;;;;;;3.97;87.91;100158.97;1804810;79;21040;-65
2020/12/30 04:50:19;;;;;;;54.77;19.37;;;;;;;3.95;87.94;100149.05;1807543;78;21886;-66
2020/12/30 04:52:47;;;;;;;70.60;21.17;;;;;;;3.94;87.93;100152.59;1797871;79;21110;-66
2020/12/30 04:55:19;;;;;;;67.87;20.82;;;;;;;3.93;87.96;100150.91;1804893;78;21105;-67
2020/12/30 04:58:05;;;;;;;52.38;17.35;;;;;;;3.91;87.95;100152.77;1807581;79;21542;-66
2020/12/30 05:00:36;;;;;;;50.90;17.75;;;;;;;3.89;87.99;100149.40;1791505;79;21123;-65
2020/12/30 05:03:09;;;;;;;74.80;19.05;;;;;;;3.88;87.97;100150.33;1805386;79;22915;-66
2020/12/30 05:05:38;;;;;;;59.88;17.85;;;;;;;3.84;88.01;100155.33;1789745;79;25961;-66
2020/12/30 05:08:12;;;;;;;56.90;19.15;;;;;;;3.78;87.99;100160.91;1780892;79;21420;-66
2020/12/30 05:10:44;;;;;;;51.83;19.02;;;;;;;3.75;88.00;100153.22;1798293;78;21480;-66
2020/12/30 05:13:13;;;;;;;61.50;19.77;;;;;;;3.72;87.97;100152.09;1806505;78;21071;-66
2020/12/30 05:15:41;;;;;;;78.50;19.42;;;;;;;3.70;88.02;100150.88;1775847;80;22076;-66
2020/12/30 05:18:10;;;;;;;63.10;19.10;;;;;;;3.70;88.00;100150.03;1776578;79;21104;-66
2020/12/30 05:20:38;;;;;;;67.40;20.62;;;;;;;3.67;88.03;100149.75;1793694;79;21120;-66
2020/12/30 05:23:07;;;;;;;59.90;20.35;;;;;;;3.66;88.03;100157.64;1807584;78;21120;-66
2020/12/30 05:25:42;;;;;;;53.30;20.50;;;;;;;3.67;88.04;100160.66;1794272;78;21127;-66
2020/12/30 05:28:13;;;;;;;71.95;20.52;;;;;;;3.66;88.05;100166.31;1807338;78;21491;-66
2020/12/30 05:30:43;;;;;;;46.00;19.62;;;;;;;3.66;88.07;100168.08;1806022;79;21432;-68
2020/12/30 05:33:11;;;;;;;59.70;21.93;;;;;;;3.66;88.07;100175.92;1803514;79;21052;-66
2020/12/30 05:35:39;;;;;;;67.97;21.07;;;;;;;3.66;88.07;100175.92;1782325;79;21095;-68
2020/12/30 05:38:07;;;;;;;59.93;19.55;;;;;;;3.68;88.10;100175.40;1792000;79;21103;-68
2020/12/30 05:40:35;;;;;;;56.37;20.62;;;;;;;3.71;88.10;100180.45;1788456;79;22057;-67
2020/12/30 05:43:17;;;;;;;63.38;17.23;;;;;;;3.72;88.12;100184.74;1805877;79;21195;-67
2020/12/30 05:45:51;;;;;;;83.17;20.95;;;;;;;3.73;88.12;100181.20;1795643;79;21194;-67
2020/12/30 05:48:21;;;;;;;63.48;18.82;;;;;;;3.76;88.13;100185.41;1775609;80;21064;-67
2020/12/30 05:50:56;;;;;;;50.63;17.60;;;;;;;3.76;88.14;100188.86;1776015;80;21055;-67
2020/12/30 05:53:25;;;;;;;68.75;19.05;;;;;;;3.74;88.12;100184.19;1775997;80;22304;-66
2020/12/30 05:56:08;;;;;;;61.95;19.57;;;;;;;3.73;88.12;100189.87;1801328;79;21091;-65
2020/12/30 05:58:42;;;;;;;60.05;18.70;;;;;;;3.73;88.13;100193.80;1798907;79;21060;-66
2020/12/30 06:01:27;;;;;;;64.45;19.87;;;;;;;3.73;88.13;100202.94;1807964;79;21072;-65
2020/12/30 06:03:56;;;;;;;73.25;20.80;;;;;;;3.73;88.13;100205.55;1785199;79;21499;-66
2020/12/30 06:06:25;;;;;;;59.88;21.30;;;;;;;3.72;88.14;100209.09;1801060;79;21822;-68
2020/12/30 06:08:53;;;;;;;51.90;20.72;;;;;;;3.70;88.12;100209.64;1709433;80;21079;-68
2020/12/30 06:11:24;;;;;;;44.63;21.27;;;;;;;3.71;88.10;100220.47;1799308;79;21099;-67
2020/12/30 06:13:52;;;;;;;57.83;21.20;;;;;;;3.72;88.12;100223.46;1813828;79;21059;-67
2020/12/30 06:16:25;;;;;;;77.10;22.48;;;;;;;3.72;88.12;100220.00;1810058;78;21340;-68
2020/12/30 06:18:53;;;;;;;63.13;21.70;;;;;;;3.72;88.12;100219.55;1811775;78;22018;-67
2020/12/30 06:21:21;;;;;;;72.35;23.00;;;;;;;3.74;88.12;100212.45;1760229;78;21154;-69
2020/12/30 06:23:51;;;;;;;62.83;24.02;;;;;;;3.76;88.09;100214.14;1811041;78;21053;-67
2020/12/30 06:26:18;;;;;;;72.45;23.47;;;;;;;3.77;88.11;100210.63;1782576;78;21503;-67
2020/12/30 06:28:49;;;;;;;60.90;22.98;;;;;;;3.79;88.11;100209.62;1721706;79;21138;-65
2020/12/30 06:31:17;;;;;;;74.90;25.27;;;;;;;3.78;88.10;100210.55;1813831;79;21936;-65
2020/12/30 06:33:45;;;;;;;68.12;24.43;;;;;;;3.79;88.10;100220.53;1791108;78;21174;-66
2020/12/30 06:36:24;;;;;;;63.40;24.30;;;;;;;3.80;88.11;100219.14;1781722;80;21174;-67
2020/12/30 06:38:54;;;;;;;55.00;25.72;;;;;;;3.82;88.13;100214.66;1797626;78;21051;-66
2020/12/30 06:41:25;;;;;;;51.68;26.50;;;;;;;3.84;88.13;100207.58;1801811;78;21055;-67
2020/12/30 06:43:52;;;;;;;62.05;26.12;;;;;;;3.88;88.13;100210.89;1811684;78;22837;-68
2020/12/30 06:46:28;;;;;;;62.98;27.55;;;;;;;3.92;88.15;100225.46;1808440;78;21443;-67
2020/12/30 06:49:05;;;;;;;65.42;27.80;;;;;;;3.93;88.15;100221.45;1782153;79;21143;-68
2020/12/30 06:51:43;;;;;;;80.38;28.15;;;;;;;3.95;88.12;100221.36;1764207;79;21083;-66
2020/12/30 06:54:10;;;;;;;59.40;23.90;;;;;;;3.94;88.11;100215.30;1813218;78;21336;-67
2020/12/30 06:56:42;;;;;;;70.52;26.60;;;;;;;3.97;88.14;100219.07;1812910;79;21824;-65
2020/12/30 06:59:28;;;;;;;68.17;30.55;;;;;;;3.93;88.11;100218.84;1813854;79;21360;-66
2020/12/30 07:02:02;;;;;;;58.13;29.37;;;;;;;3.92;88.11;100215.01;1809711;78;21546;-65
2020/12/30 07:04:33;;;;;;;60.88;30.40;;;;;;;3.92;88.12;100218.93;1785164;78;21191;-66
2020/12/30 07:07:20;;;;;;;63.20;32.42;;;;;;;3.95;88.12;100219.59;1797992;79;21202;-69
2020/12/30 07:09:48;;;;;;;59.53;31.40;;;;;;;3.97;88.15;100217.77;1805610;79;21882;-67
2020/12/30 07:12:16;;;;;;;59.90;32.55;;;;;;;4.03;88.16;100220.48;1806218;79;21511;-68
2020/12/30 07:14:43;;;;;;;66.25;34.35;;;;;;;4.08;88.18;100224.17;1807501;79;21048;-67
2020/12/30 07:17:12;;;;;;;75.35;36.05;;;;;;;4.12;88.20;100225.21;1779046;78;21056;-67
2020/12/30 07:19:41;;;;;;;55.55;29.40;;;;;;;4.17;88.22;100217.97;1807688;79;21423;-66
2020/12/30 07:22:15;;;;;;;85.85;48.08;;;;;;;4.22;88.27;100222.47;1807826;79;22068;-65
2020/12/30 07:24:53;;;;;;;104.05;55.83;;;;;;;4.26;88.29;100220.08;1807827;79;21479;-65
2020/12/30 07:27:24;;;;;;;109.80;63.73;;;;;;;4.30;88.30;100216.35;1807796;79;21302;-65
2020/12/30 07:29:52;;;;;;;99.17;57.83;;;;;;;4.36;88.34;100217.80;1807772;78;21052;-65
2020/12/30 07:32:19;;;;;;;96.40;54.63;;;;;;;4.42;88.35;100216.12;1807701;79;21048;-65
2020/12/30 07:34:50;;;;;;;98.78;52.88;;;;;;;4.47;88.36;100219.33;1807730;78;22063;-65
2020/12/30 07:37:19;;;;;;;86.17;48.50;;;;;;;4.52;88.38;100216.44;1807632;79;21118;-65
2020/12/30 07:39:48;;;;;;;70.60;42.95;;;;;;;4.57;88.38;100222.27;1807747;79;21116;-65
2020/12/30 07:42:19;;;;;;;73.67;42.88;;;;;;;4.61;88.42;100218.53;1807736;78;21564;-65
2020/12/30 07:44:51;;;;;;;57.50;34.25;;;;;;;4.69;88.47;100216.80;1807792;79;21099;-65
2020/12/30 07:47:20;;;;;;;38.20;23.50;;;;;;;4.77;88.52;100208.88;1807699;79;24214;-65
2020/12/30 07:49:48;;;;;;;40.12;25.75;;;;;;;4.89;88.58;100204.70;1778663;79;21131;-65
2020/12/30 07:52:16;;;;;;;32.55;20.68;;;;;;;5.01;88.64;100202.66;1807719;78;21127;-65
2020/12/30 07:54:45;;;;;;;26.55;17.52;;;;;;;5.14;88.72;100215.42;1807594;79;21398;-65
2020/12/30 07:57:13;;;;;;;31.30;20.80;;;;;;;5.25;88.79;100216.09;1807769;79;21111;-65
2020/12/30 07:59:43;;;;;;;31.12;20.72;;;;;;;5.34;88.84;100217.31;1807757;78;22014;-65
2020/12/30 08:02:13;;;;;;;29.10;22.70;;;;;;;5.40;88.92;100214.30;1807612;79;21095;-65
2020/12/30 08:04:42;;;;;;;27.85;20.52;;;;;;;5.46;88.95;100216.09;1807616;79;21044;-65
2020/12/30 08:07:12;;;;;;;29.77;21.95;;;;;;;5.52;88.98;100215.36;1807783;79;21337;-65
2020/12/30 08:09:42;;;;;;;28.42;20.70;;;;;;;5.56;89.02;100217.69;1807779;79;21076;-65
2020/12/30 08:12:14;;;;;;;32.13;23.27;;;;;;;5.60;89.05;100225.75;1807660;79;22057;-66
2020/12/30 08:14:43;;;;;;;31.70;22.52;;;;;;;5.64;89.07;100227.23;1807716;79;21060;-65
2020/12/30 08:17:15;;;;;;;32.10;22.67;;;;;;;5.69;89.08;100226.94;1807806;79;21087;-65
2020/12/30 08:19:51;;;;;;;28.00;21.62;;;;;;;5.71;89.10;100234.27;1807821;79;21068;-66
2020/12/30 08:25:06;;;;;;;28.20;19.57;;;;;;;5.83;89.14;100233.50;1873584;76;29072;-65
2020/12/30 08:27:34;;;;;;;31.23;20.08;;;;;;;5.82;89.12;100242.30;1831606;78;21068;-65
2020/12/30 08:30:02;;;;;;;27.13;18.60;;;;;;;5.86;89.13;100245.09;1754481;79;22067;-65
2020/12/30 08:32:35;;;;;;;28.07;18.52;;;;;;;5.90;89.14;100243.14;1808414;79;21131;-66
2020/12/30 08:35:23;;;;;;;21.10;14.63;;;;;;;5.93;89.16;100235.11;1764114;79;21069;-65
2020/12/30 08:38:13;;;;;;;21.12;14.73;;;;;;;5.96;89.16;100229.66;1753623;81;21061;-65
2020/12/30 08:40:41;;;;;;;27.75;15.68;;;;;;;6.00;89.17;100229.86;1754618;81;21128;-65
2020/12/30 08:43:36;;;;;;;26.77;17.67;;;;;;;6.05;89.20;100233.02;1754680;81;22980;-64
2020/12/30 08:46:10;;;;;;;19.73;12.78;;;;;;;6.08;89.19;100232.85;1759246;80;21532;-65
2020/12/30 08:48:48;;;;;;;21.97;14.83;;;;;;;6.17;89.24;100231.40;1873605;76;29065;-65
2020/12/30 08:51:30;;;;;;;21.17;15.78;;;;;;;6.17;89.25;100230.09;1841650;78;21175;-66
2020/12/30 08:53:58;;;;;;;21.33;16.15;;;;;;;6.23;89.27;100229.70;1821113;78;22046;-67
2020/12/30 08:56:28;;;;;;;32.88;23.25;;;;;;;6.28;89.29;100220.63;1810601;78;21163;-66
2020/12/30 08:58:57;;;;;;;47.38;34.63;;;;;;;6.31;89.29;100209.92;1820599;78;21040;-66
2020/12/30 09:01:27;;;;;;;72.82;54.08;;;;;;;6.37;89.32;100207.83;1815085;78;21060;-66
2020/12/30 09:04:11;;;;;;;72.20;53.87;;;;;;;6.42;89.33;100214.95;1814354;78;21048;-67
2020/12/30 09:06:39;;;;;;;69.47;50.12;;;;;;;6.47;89.33;100210.26;1808451;79;22101;-66
2020/12/30 09:09:13;;;;;;;44.30;36.42;;;;;;;6.51;89.35;100209.94;1819998;78;21127;-66
2020/12/30 09:11:47;;;;;;;42.90;33.58;;;;;;;6.56;89.34;100205.69;1841484;78;21056;-65
2020/12/30 09:14:21;;;;;;;38.20;28.62;;;;;;;6.61;89.36;100201.00;1841612;77;21219;-65
2020/12/30 09:17:02;;;;;;;33.67;27.55;;;;;;;6.65;89.37;100210.81;1834333;78;21104;-65
2020/12/30 09:19:29;;;;;;;23.92;19.70;;;;;;;6.70;89.37;100203.49;1839250;78;21923;-65
2020/12/30 09:22:08;;;;;;;24.45;20.92;;;;;;;6.74;89.39;100201.86;1841384;78;21060;-65
2020/12/30 09:24:42;;;;;;;30.97;22.02;;;;;;;6.78;89.33;100196.80;1811576;78;21607;-65
2020/12/30 09:27:20;;;;;;;;;;;;;;;6.83;89.35;100186.81;1844166;78;21108;-66
2020/12/30 09:30:10;;;;;;;24.10;17.85;;;;;;;6.88;89.34;100186.05;1841631;78;20261;-66
2020/12/30 09:32:41;;;;;;;22.40;17.10;;;;;;;6.91;89.35;100178.43;1841409;77;22046;-67
2020/12/30 09:35:11;;;;;;;21.62;16.52;;;;;;;6.96;89.33;100176.83;1799531;78;21132;-67
2020/12/30 09:37:41;;;;;;;22.58;14.60;;;;;;;7.00;89.31;100180.91;1808517;79;21139;-66
2020/12/30 09:40:15;;;;;;;24.63;15.43;;;;;;;7.03;89.31;100185.95;1808409;79;21119;-66
2020/12/30 09:42:44;;;;;;;21.62;14.78;;;;;;;7.06;89.27;100186.59;1806241;78;21092;-66
2020/12/30 09:45:17;;;;;;;19.45;14.47;;;;;;;7.08;89.25;100178.61;1803060;78;21902;-67
2020/12/30 09:47:44;;;;;;;23.22;17.32;;;;;;;7.11;89.23;100175.29;1790889;79;21092;-67
2020/12/30 09:50:17;;;;;;;21.10;16.25;;;;;;;7.15;89.21;100180.72;1753672;79;21058;-67
2020/12/30 09:52:46;;;;;;;21.93;16.75;;;;;;;7.17;89.18;100168.80;1784767;79;21470;-68
2020/12/30 09:55:14;;;;;;;20.15;16.10;;;;;;;7.21;89.16;100171.56;1802033;79;21073;-70
2020/12/30 09:57:43;;;;;;;24.52;15.48;;;;;;;7.25;89.14;100159.08;1731274;82;21909;-67
2020/12/30 10:00:11;;;;;;;22.25;15.18;;;;;;;7.29;89.13;100165.79;1736826;82;21235;-67
2020/12/30 10:02:39;;;;;;;20.40;14.83;;;;;;;7.33;89.09;100166.77;1750348;82;21181;-67
2020/12/30 10:05:07;;;;;;;23.95;15.08;;;;;;;7.37;89.07;100164.79;1750404;81;21077;-67
2020/12/30 10:07:38;;;;;;;21.85;15.63;;;;;;;7.40;89.03;100151.43;1750370;82;21114;-67
2020/12/30 10:10:05;;;;;;;23.05;14.50;;;;;;;7.43;89.03;100139.38;1748553;82;22892;-67
2020/12/30 10:12:38;;;;;;;19.60;14.63;;;;;;;7.48;88.99;100139.08;1750320;80;21379;-67
2020/12/30 10:15:09;;;;;;;16.30;11.63;;;;;;;7.52;88.97;100142.68;1750378;82;21062;-67
2020/12/30 10:17:39;;;;;;;22.20;13.98;;;;;;;7.57;88.95;100137.95;1749945;82;21073;-67
2020/12/30 10:20:08;;;;;;;22.52;15.10;;;;;;;7.61;88.92;100129.36;1736663;82;21113;-67
2020/12/30 10:22:39;;;;;;;28.35;17.90;;;;;;;7.67;88.91;100124.52;1749745;82;22064;-68
2020/12/30 10:25:15;;;;;;;26.27;16.85;;;;;;;7.72;88.88;100117.61;1750076;82;21144;-68
2020/12/30 10:27:45;;;;;;;22.42;15.70;;;;;;;7.79;88.87;100120.64;1750124;82;21066;-67
2020/12/30 10:30:12;;;;;;;25.75;17.55;;;;;;;7.83;88.84;100113.76;1743872;82;21140;-68
2020/12/30 10:32:41;;;;;;;22.87;15.75;;;;;;;7.88;88.83;100106.36;1749447;82;21124;-68
2020/12/30 10:35:10;;;;;;;22.37;15.23;;;;;;;7.94;88.78;100106.41;1748935;82;24279;-67
2020/12/30 10:37:38;;;;;;;22.30;14.75;;;;;;;8.00;88.74;100099.36;1750327;82;21105;-67
2020/12/30 10:40:06;;;;;;;23.95;15.00;;;;;;;8.03;88.70;100095.22;1750247;82;21065;-67
2020/12/30 10:42:33;;;;;;;19.55;13.62;;;;;;;8.08;88.65;100097.02;1750483;80;21493;-67
2020/12/30 10:45:02;;;;;;;23.00;15.13;;;;;;;8.14;88.63;100097.05;1750305;81;21148;-66
2020/12/30 10:47:29;;;;;;;26.87;16.17;;;;;;;8.19;88.53;100089.64;1749960;81;22058;-67
2020/12/30 10:49:58;;;;;;;26.02;15.93;;;;;;;8.23;88.48;100092.43;1750162;82;22456;-67
2020/12/30 10:52:26;;;;;;;26.07;19.67;;;;;;;8.25;88.36;100096.62;1750480;82;21068;-66
2020/12/30 10:54:55;;;;;;;39.08;31.95;;;;;;;8.29;88.28;100106.42;1749762;82;21342;-66
2020/12/30 10:57:23;;;;;;;47.62;42.50;;;;;;;8.31;88.17;100104.06;1749600;80;21485;-66
2020/12/30 10:59:50;;;;;;;57.75;48.08;;;;;;;8.34;88.07;100097.73;1738673;82;21902;-66
2020/12/30 11:02:18;;;;;;;49.03;41.88;;;;;;;8.36;88.02;100085.80;1722176;82;21164;-66
2020/12/30 11:04:46;;;;;;;34.25;27.45;;;;;;;8.40;87.95;100085.95;1749620;80;21044;-67
2020/12/30 11:07:13;;;;;;;40.92;32.38;;;;;;;8.43;87.87;100071.23;1749820;82;21055;-66
2020/12/30 11:09:41;;;;;;;32.58;27.27;;;;;;;8.47;87.80;100073.51;1750494;82;21128;-66
2020/12/30 11:12:11;;;;;;;35.15;24.52;;;;;;;8.55;87.77;100066.35;1742066;82;22060;-66
2020/12/30 11:14:41;;;;;;;29.90;20.75;;;;;;;8.62;87.70;100065.42;1745949;80;21148;-66
2020/12/30 11:17:08;;;;;;;31.50;18.05;;;;;;;8.65;87.61;100061.23;1750271;82;21444;-69
2020/12/30 11:19:36;;;;;;;32.10;18.27;;;;;;;8.69;87.47;100066.64;1749833;82;21053;-67
2020/12/30 11:22:04;;;;;;;32.13;18.45;;;;;;;8.71;87.35;100066.03;1750267;81;21072;-68
2020/12/30 11:24:32;;;;;;;28.57;16.12;;;;;;;8.74;87.23;100069.27;1750553;80;24285;-65
2020/12/30 11:27:00;;;;;;;24.67;13.80;;;;;;;8.78;87.14;100073.35;1750199;80;21121;-67
2020/12/30 11:29:27;;;;;;;20.25;13.03;;;;;;;8.79;86.93;100075.51;1750041;82;21370;-66
2020/12/30 11:31:55;;;;;;;24.55;13.20;;;;;;;8.78;86.72;100073.35;1750106;82;21058;-66